Time;durP1;ratioP1;P1;durP2;ratioP2;P2;SDS_P1;SDS_P2;PMS_P1;PMS_P2;Temp;Humidity;BMP_temperature;BMP_pressure;BME280_temperature;BME280_humidity;BME280_pressure;Samples;Min_cycle;Max_cycle;Signal;HPM_P1;HPM_P2
2021/12/13 00:01:59;;;;;;;;;16.25;10.75;;;;;16.35;80.15;102354.38;5019234;28;62004;-76
2021/12/13 00:04:27;;;;;;;;;13.50;10.25;;;;;16.33;80.63;102349.00;5018832;28;62268;-75
2021/12/13 00:06:58;;;;;;;;;18.75;14.00;;;;;16.32;80.74;102341.91;5020091;28;61857;-78
2021/12/13 00:09:27;;;;;;;;;22.50;14.75;;;;;16.32;80.83;102341.91;5006181;28;61836;-78
2021/12/13 00:11:56;;;;;;;;;19.50;14.00;;;;;16.32;80.73;102333.03;5022714;28;61926;-77
2021/12/13 00:14:33;;;;;;;;;27.00;14.75;;;;;16.32;80.61;102338.31;5021997;28;62852;-78
2021/12/13 00:17:14;;;;;;;;;15.25;15.25;;;;;16.27;80.47;102331.91;5006202;28;61987;-78
2021/12/13 00:19:49;;;;;;;;;14.75;12.50;;;;;16.23;80.61;102327.31;5022656;28;61777;-78
2021/12/13 00:22:31;;;;;;;;;14.75;14.00;;;;;16.25;80.53;102326.53;5022830;28;61836;-78
2021/12/13 00:25:05;;;;;;;;;16.50;13.25;;;;;16.24;80.56;102319.44;5044513;28;61939;-77
2021/12/13 00:27:37;;;;;;;;;16.50;11.25;;;;;16.25;80.62;102313.28;5044954;28;62099;-77
2021/12/13 00:30:11;;;;;;;;;12.50;12.50;;;;;16.27;80.54;102321.31;5044803;28;61887;-77
2021/12/13 00:33:17;;;;;;;;;14.75;12.75;;;;;16.26;80.30;102323.06;5044960;28;61963;-78
2021/12/13 00:35:49;;;;;;;;;18.00;12.00;;;;;16.28;80.25;102323.13;5042689;28;64056;-77
2021/12/13 00:38:18;;;;;;;;;15.50;13.75;;;;;16.24;80.01;102319.44;5044912;28;61875;-77
2021/12/13 00:40:50;;;;;;;;;12.00;9.75;;;;;16.26;80.18;102320.44;5044660;28;61780;-77
2021/12/13 00:43:28;;;;;;;;;14.50;8.75;;;;;16.26;79.84;102322.13;5044661;28;61895;-76
2021/12/13 00:45:59;;;;;;;;;14.25;12.00;;;;;16.25;79.83;102315.03;5042859;28;63648;-77
2021/12/13 00:48:29;;;;;;;;;11.00;10.00;;;;;16.23;80.08;102325.56;5044586;28;61944;-77
2021/12/13 00:51:05;;;;;;;;;7.00;7.00;;;;;16.22;80.10;102322.88;5043301;28;61757;-77
2021/12/13 00:53:36;;;;;;;;;9.50;9.25;;;;;16.23;79.95;102324.66;5044777;28;61936;-77
2021/12/13 00:56:40;;;;;;;;;13.75;8.50;;;;;16.24;79.92;102329.09;5043816;28;62863;-76
2021/12/13 00:59:08;;;;;;;;;12.00;10.00;;;;;16.24;79.82;102326.47;5081145;28;61667;-77
2021/12/13 01:01:35;;;;;;;;;11.00;10.50;;;;;16.24;79.88;102323.81;5084837;28;61861;-77
2021/12/13 01:04:07;;;;;;;;;17.25;9.50;;;;;16.27;79.59;102330.16;5085000;28;61734;-78
2021/12/13 01:07:10;;;;;;;;;9.00;6.00;;;;;16.28;80.00;102326.69;5084124;27;62164;-77
2021/12/13 01:09:59;;;;;;;;;11.25;9.25;;;;;16.31;79.88;102331.22;5084536;27;62117;-77
2021/12/13 01:12:26;;;;;;;;;13.50;9.75;;;;;16.31;79.88;102321.53;5084679;27;61925;-77
2021/12/13 01:15:11;;;;;;;;;9.25;9.25;;;;;16.33;79.96;102324.25;5084971;27;62020;-77
2021/12/13 01:20:33;;;;;;;;;9.50;7.50;;;;;16.26;79.81;102316.84;5084170;28;61911;-77
2021/12/13 01:23:06;;;;;;;;;12.75;7.00;;;;;16.26;80.08;102320.44;5084490;27;61953;-77
2021/12/13 01:28:39;;;;;;;;;5.50;2.50;;;;;16.23;79.93;102312.31;5083786;28;61782;-77
2021/12/13 01:31:07;;;;;;;;;7.75;6.75;;;;;16.26;79.95;102319.50;5084471;27;61959;-76
2021/12/13 01:33:34;;;;;;;;;15.50;9.00;;;;;16.31;79.99;102323.28;5084314;28;61956;-77
2021/12/13 01:36:03;;;;;;;;;16.25;10.00;;;;;16.31;79.48;102323.28;5082836;28;61978;-77
2021/12/13 01:38:35;;;;;;;;;9.00;8.25;;;;;16.33;80.26;102322.50;5082418;28;63908;-77
2021/12/13 01:41:22;;;;;;;;;9.00;6.75;;;;;16.33;79.91;102325.16;5084267;28;61797;-77
2021/12/13 01:43:58;;;;;;;;;7.75;6.00;;;;;16.31;80.07;102328.56;5084295;27;61938;-77
2021/12/13 01:46:25;;;;;;;;;7.75;7.75;;;;;16.28;79.97;102334.66;5084612;27;61834;-78
2021/12/13 01:48:53;;;;;;;;;6.75;4.25;;;;;16.28;80.10;102336.38;5083371;27;61802;-77
2021/12/13 01:51:26;;;;;;;;;7.00;6.25;;;;;16.27;80.00;102329.28;5082571;28;61921;-77
2021/12/13 01:54:06;;;;;;;;;10.00;8.50;;;;;16.24;80.20;102327.41;5082721;28;61782;-77
2021/12/13 01:56:53;;;;;;;;;13.25;8.50;;;;;16.25;80.12;102325.66;5083911;27;61791;-77
2021/12/13 02:02:07;;;;;;;;;9.00;8.50;;;;;16.25;80.24;102330.94;5083765;27;61719;-77
2021/12/13 02:04:32;;;;;;;;;17.75;10.25;;;;;16.24;80.32;102329.09;5083760;27;61743;-77
2021/12/13 02:07:03;;;;;;;;;10.00;8.00;;;;;16.25;80.20;102334.50;5083975;28;61865;-77
2021/12/13 02:09:37;;;;;;;;;10.75;7.25;;;;;16.29;80.25;102333.81;5081883;28;64676;-77
2021/12/13 02:12:13;;;;;;;;;9.50;8.75;;;;;16.19;80.21;102341.25;5083445;27;61901;-77
2021/12/13 02:14:48;;;;;;;;;10.50;9.00;;;;;16.22;80.56;102336.13;5083857;27;61861;-77
2021/12/13 02:17:20;;;;;;;;;7.00;6.00;;;;;16.25;80.45;102338.88;5083980;27;61929;-77
2021/12/13 02:20:01;;;;;;;;;9.75;7.50;;;;;16.22;80.26;102341.41;5083076;27;61820;-77
2021/12/13 02:22:48;;;;;;;;;12.00;8.00;;;;;16.24;80.30;102335.34;5083539;27;61881;-77
2021/12/13 02:25:33;;;;;;;;;10.50;8.50;;;;;16.23;80.41;102348.50;5083352;27;61785;-77
2021/12/13 02:28:14;;;;;;;;;11.00;9.50;;;;;16.18;80.54;102340.34;5083759;27;61794;-77
2021/12/13 02:31:02;;;;;;;;;12.75;10.25;;;;;16.21;80.65;102339.59;5081733;28;62908;-77
2021/12/13 02:33:30;;;;;;;;;10.00;9.50;;;;;16.18;80.73;102347.41;5081599;28;61892;-77
2021/12/13 02:36:04;;;;;;;;;10.25;8.75;;;;;16.23;80.60;102340.56;5081830;28;62002;-77
2021/12/13 02:38:29;;;;;;;;;10.00;7.50;;;;;16.26;80.64;102331.03;5082319;27;61841;-78
2021/12/13 02:40:55;;;;;;;;;10.50;10.50;;;;;16.30;80.50;102340.00;5082435;27;61963;-77
2021/12/13 02:43:26;;;;;;;;;9.75;5.75;;;;;16.30;80.35;102335.63;5083429;27;61917;-77
2021/12/13 02:45:55;;;;;;;;;11.50;8.50;;;;;16.30;80.32;102332.97;5083240;27;61786;-77
2021/12/13 02:48:33;;;;;;;;;9.25;7.50;;;;;16.30;80.22;102332.06;5083433;27;61990;-77
2021/12/13 02:51:08;;;;;;;;;11.00;8.50;;;;;16.29;80.33;102336.44;5082420;27;61747;-78
2021/12/13 02:53:42;;;;;;;;;12.75;8.00;;;;;16.31;80.46;102333.88;5083324;27;61708;-77
2021/12/13 02:56:10;;;;;;;;;10.75;8.00;;;;;16.29;80.56;102331.16;5081053;28;61881;-77
2021/12/13 02:58:37;;;;;;;;;6.75;6.75;;;;;16.30;80.43;102332.06;5082620;27;61957;-77
2021/12/13 03:01:15;;;;;;;;;12.75;11.25;;;;;16.27;80.42;102330.16;5082282;28;61905;-77
2021/12/13 03:03:49;;;;;;;;;15.25;11.00;;;;;16.28;80.26;102333.72;5081850;28;62208;-77
2021/12/13 03:06:20;;;;;;;;;12.50;9.75;;;;;16.26;80.26;102333.69;5082763;27;61952;-77
2021/12/13 03:08:54;;;;;;;;;10.25;8.00;;;;;16.24;80.32;102323.81;5082820;27;62143;-78
2021/12/13 03:11:27;;;;;;;;;15.75;10.00;;;;;16.26;80.06;102325.72;5082302;28;61805;-78
2021/12/13 03:14:05;;;;;;;;;10.00;10.00;;;;;16.24;80.32;102327.41;5082852;28;61872;-78
2021/12/13 03:16:38;;;;;;;;;11.50;11.00;;;;;16.27;80.33;102329.28;5082973;27;61949;-78
2021/12/13 03:19:17;;;;;;;;;12.00;8.25;;;;;16.29;80.30;102330.25;5083059;27;61845;-78
2021/12/13 03:22:20;;;;;;;;;10.75;8.50;;;;;16.30;80.26;102325.03;5082166;27;61765;-78
2021/12/13 03:25:07;;;;;;;;;8.75;7.00;;;;;16.30;80.08;102329.41;5081127;28;61723;-78
2021/12/13 03:27:32;;;;;;;;;7.50;7.50;;;;;16.25;79.87;102320.34;5081546;28;61849;-78
2021/12/13 03:30:05;;;;;;;;;11.00;10.00;;;;;16.24;79.87;102308.84;5082672;27;62147;-77
2021/12/13 03:32:45;;;;;;;;;12.75;9.50;;;;;16.26;79.83;102311.53;5081942;28;61885;-77
2021/12/13 03:35:13;;;;;;;;;14.25;11.75;;;;;16.26;79.90;102314.19;5081069;28;61833;-77
2021/12/13 03:37:42;;;;;;;;;9.00;7.75;;;;;16.28;79.60;102310.81;5081141;28;61792;-77
2021/12/13 03:40:19;;;;;;;;;15.50;8.00;;;;;16.26;79.83;102314.19;5081063;27;61856;-77
2021/12/13 03:42:52;;;;;;;;;8.25;7.50;;;;;16.27;79.53;102311.63;5081444;27;61814;-78
2021/12/13 03:45:46;;;;;;;;;12.25;9.50;;;;;16.23;79.57;102311.41;5082400;27;61815;-77
2021/12/13 03:48:14;;;;;;;;;10.25;7.25;;;;;16.23;79.44;102304.38;5081393;28;61957;-76
2021/12/13 03:50:45;;;;;;;;;10.00;8.75;;;;;16.22;79.62;102306.97;5081211;28;62127;-77
2021/12/13 03:53:18;;;;;;;;;15.75;13.25;;;;;16.20;79.45;102296.28;5081420;27;61756;-77
2021/12/13 03:55:48;;;;;;;;;8.50;7.00;;;;;16.19;79.36;102294.47;5082272;27;61876;-77
2021/12/13 03:58:18;;;;;;;;;12.50;5.50;;;;;16.15;78.98;102292.50;5081385;28;61928;-77
2021/12/13 04:00:51;;;;;;;;;11.50;10.00;;;;;16.14;79.17;102296.00;5082581;28;62003;-77
2021/12/13 04:03:18;;;;;;;;;10.25;8.00;;;;;16.14;79.27;102301.31;5080116;28;63689;-77
2021/12/13 04:05:46;;;;;;;;;12.00;9.25;;;;;16.19;79.33;102301.50;5080975;28;61823;-77
2021/12/13 04:08:13;;;;;;;;;10.25;8.00;;;;;16.18;79.23;102303.25;5081612;27;61999;-77
2021/12/13 04:10:46;;;;;;;;;12.75;9.75;;;;;16.21;79.52;102299.84;5082218;27;61811;-77
2021/12/13 04:13:18;;;;;;;;;8.50;8.00;;;;;16.21;79.10;102302.50;5081254;27;62228;-77
2021/12/13 04:15:57;;;;;;;;;13.25;9.25;;;;;16.18;78.78;102303.25;5082063;27;61802;-77
2021/12/13 04:21:16;;;;;;;;;13.75;11.00;;;;;16.17;78.55;102301.44;5081825;27;61842;-77
2021/12/13 04:23:49;;;;;;;;;10.50;8.25;;;;;16.18;79.04;102300.63;5081489;27;62723;-77
2021/12/13 04:26:15;;;;;;;;;10.00;10.00;;;;;16.16;78.94;102299.63;5081585;27;61770;-77
2021/12/13 04:28:46;;;;;;;;;13.50;10.50;;;;;16.17;78.66;102300.53;5080371;28;61750;-77
2021/12/13 04:31:15;;;;;;;;;6.75;6.75;;;;;16.18;78.92;102305.00;5082170;28;62078;-78
2021/12/13 04:33:52;;;;;;;;;11.50;9.75;;;;;16.17;79.15;102293.47;5081425;27;61896;-77
2021/12/13 04:36:38;;;;;;;;;13.50;12.25;;;;;16.18;78.96;102305.00;5079756;28;61929;-78
2021/12/13 04:39:27;;;;;;;;;10.50;10.00;;;;;16.18;78.78;102307.66;5082060;27;62146;-77
2021/12/13 04:42:01;;;;;;;;;10.00;10.00;;;;;16.22;78.80;102296.38;5082086;27;62106;-77
2021/12/13 04:44:43;;;;;;;;;19.75;10.00;;;;;16.13;78.33;102297.75;5080985;28;61909;-77
2021/12/13 04:47:14;;;;;;;;;14.25;13.25;;;;;16.11;78.72;102303.78;5080473;28;61936;-77
2021/12/13 04:49:46;;;;;;;;;15.25;12.50;;;;;16.12;78.32;102308.28;5081620;27;61653;-77
2021/12/13 04:52:16;;;;;;;;;9.25;8.50;;;;;16.12;78.31;102302.97;5081596;27;61798;-77
2021/12/13 04:54:46;;;;;;;;;9.75;9.75;;;;;16.14;78.03;102307.50;5082900;28;62995;-77
2021/12/13 04:57:13;;;;;;;;;16.00;13.25;;;;;16.12;77.90;102308.28;5082782;28;61991;-77
2021/12/13 04:59:39;;;;;;;;;14.50;10.75;;;;;16.11;78.17;102311.75;5085081;27;61801;-77
2021/12/13 05:02:10;;;;;;;;;13.75;9.50;;;;;16.11;78.15;102322.34;5084830;27;61878;-77
2021/12/13 05:04:37;;;;;;;;;11.00;8.00;;;;;16.06;77.73;102318.59;5084033;27;61805;-77
2021/12/13 05:07:05;;;;;;;;;9.00;9.00;;;;;16.07;77.79;102333.66;5084858;27;61979;-77
2021/12/13 05:09:31;;;;;;;;;10.00;10.00;;;;;16.07;78.02;102326.63;5084670;27;62042;-77
2021/12/13 05:12:07;;;;;;;;;11.00;7.50;;;;;16.07;77.42;102329.25;5084927;27;61750;-77
2021/12/13 05:14:34;;;;;;;;;13.25;10.00;;;;;16.07;77.45;102329.25;5082625;28;63781;-77
2021/12/13 05:17:08;;;;;;;;;12.00;6.00;;;;;16.08;77.64;102324.88;5084957;27;61812;-77
2021/12/13 05:19:39;;;;;;;;;15.75;10.00;;;;;16.09;77.62;102324.94;5084311;27;61869;-77
2021/12/13 05:22:07;;;;;;;;;11.25;7.50;;;;;16.03;77.33;102322.00;5083315;28;61750;-76
2021/12/13 05:24:41;;;;;;;;;10.00;8.25;;;;;16.05;77.42;102322.97;5083609;27;61823;-77
2021/12/13 05:27:13;;;;;;;;;9.50;7.75;;;;;16.09;77.57;102324.03;5084601;27;61769;-77
2021/12/13 05:29:49;;;;;;;;;11.25;10.00;;;;;16.07;77.57;102331.00;5084418;27;62008;-77
2021/12/13 05:32:32;;;;;;;;;9.75;7.00;;;;;16.10;77.56;102328.50;5084904;27;61815;-77
2021/12/13 05:35:04;;;;;;;;;8.00;6.00;;;;;16.12;76.92;102327.72;5082453;27;63450;-77
2021/12/13 05:37:43;;;;;;;;;10.00;6.75;;;;;16.14;77.20;102328.69;5084272;28;61985;-77
2021/12/13 05:40:17;;;;;;;;;13.50;8.25;;;;;16.14;76.99;102330.44;5084503;28;61794;-77
2021/12/13 05:42:49;;;;;;;;;11.50;8.25;;;;;16.13;76.94;102331.28;5083063;28;62083;-77
2021/12/13 05:45:19;;;;;;;;;7.75;7.75;;;;;16.13;77.25;102337.50;5083748;27;61845;-77
2021/12/13 05:48:06;;;;;;;;;12.50;11.00;;;;;16.15;77.26;102330.53;5082518;28;61867;-75
2021/12/13 05:50:38;;;;;;;;;13.75;8.00;;;;;16.12;76.91;102324.16;5082639;28;61910;-77
2021/12/13 05:53:17;;;;;;;;;9.25;9.00;;;;;16.12;77.26;102326.81;5084497;27;61820;-77
2021/12/13 05:55:52;;;;;;;;;31.25;23.75;;;;;16.12;77.02;102326.81;5083251;28;61728;-77
2021/12/13 05:58:38;;;;;;;;;13.50;10.75;;;;;16.15;77.03;102334.91;5083493;27;61831;-77
2021/12/13 06:01:17;;;;;;;;;13.25;8.25;;;;;16.15;77.08;102335.81;5084332;27;61899;-77
2021/12/13 06:03:50;;;;;;;;;14.50;9.00;;;;;16.13;77.16;102326.91;5083968;27;61963;-78
2021/12/13 06:06:24;;;;;;;;;7.50;7.00;;;;;16.11;77.11;102332.94;5083098;28;63367;-77
2021/12/13 06:08:53;;;;;;;;;12.00;11.00;;;;;16.09;76.96;102334.63;5083551;27;62014;-77
2021/12/13 06:11:43;;;;;;;;;9.50;8.50;;;;;16.08;76.98;102323.13;5082716;28;61989;-76
2021/12/13 06:14:18;;;;;;;;;7.50;7.50;;;;;16.08;76.98;102331.06;5084056;28;62017;-75
2021/12/13 06:16:53;;;;;;;;;13.75;7.50;;;;;16.00;76.41;102319.19;5081430;28;63708;-74
2021/12/13 06:19:40;;;;;;;;;8.00;7.00;;;;;16.06;76.88;102332.72;5083796;27;61651;-75
2021/12/13 06:22:20;;;;;;;;;8.75;6.25;;;;;16.03;76.69;102327.31;5082229;28;61810;-76
2021/12/13 06:25:06;;;;;;;;;11.50;8.25;;;;;16.04;76.63;102320.25;5083676;27;61889;-76
2021/12/13 06:27:47;;;;;;;;;11.00;8.00;;;;;16.01;76.62;102321.03;5083027;27;61761;-76
2021/12/13 06:30:20;;;;;;;;;9.00;6.75;;;;;16.02;76.76;102332.53;5081918;28;61941;-76
2021/12/13 06:32:53;;;;;;;;;12.25;10.00;;;;;15.95;76.55;102326.03;5082802;27;61920;-75
2021/12/13 06:35:44;;;;;;;;;12.75;10.25;;;;;15.97;76.60;102329.66;5080831;27;61913;-79
2021/12/13 06:38:31;;;;;;;;;13.25;8.75;;;;;15.92;76.63;102332.09;5062279;28;62778;-76
2021/12/13 06:41:17;;;;;;;;;10.50;9.75;;;;;15.91;76.47;102332.00;5061461;28;61840;-77
2021/12/13 06:43:53;;;;;;;;;10.00;10.00;;;;;15.91;76.86;102338.22;5062798;28;61735;-75
2021/12/13 06:46:30;;;;;;;;;11.50;10.25;;;;;15.91;76.42;102332.00;5061246;28;61862;-75
2021/12/13 06:49:05;;;;;;;;;10.25;7.25;;;;;15.89;76.36;102333.69;5060722;28;64107;-78
2021/12/13 06:51:49;;;;;;;;;10.75;10.75;;;;;15.89;76.75;102331.94;5077673;28;61914;-76
2021/12/13 06:54:17;;;;;;;;;15.00;14.00;;;;;15.86;76.74;102330.91;5077979;28;62105;-75
2021/12/13 06:56:45;;;;;;;;;13.25;9.75;;;;;15.86;76.97;102330.91;5060747;28;61930;-76
2021/12/13 06:59:17;;;;;;;;;13.25;9.25;;;;;15.85;76.96;102326.41;5061733;28;61946;-76
2021/12/13 07:02:05;;;;;;;;;10.00;7.75;;;;;15.83;76.96;102315.78;5061232;28;61862;-76
2021/12/13 07:04:47;;;;;;;;;17.50;8.25;;;;;15.85;76.37;102322.06;5061634;28;61755;-76
2021/12/13 07:07:14;;;;;;;;;7.50;7.50;;;;;15.80;76.38;102322.66;5060426;28;61803;-75
2021/12/13 07:09:50;;;;;;;;;10.25;6.25;;;;;15.82;76.70;102329.84;5059688;28;63740;-76
2021/12/13 07:12:17;;;;;;;;;10.75;9.00;;;;;15.81;76.50;102327.09;5060742;28;61839;-76
2021/12/13 07:14:44;;;;;;;;;8.50;6.75;;;;;15.82;75.84;102335.13;5061812;28;61892;-76
2021/12/13 07:17:16;;;;;;;;;7.75;7.75;;;;;15.82;76.03;102332.47;5061354;28;61768;-76
2021/12/13 07:19:45;;;;;;;;;10.00;7.00;;;;;15.83;75.65;102333.38;5061107;28;61795;-76
2021/12/13 07:22:17;;;;;;;;;8.75;7.25;;;;;15.80;75.60;102330.59;5061861;28;61835;-77
2021/12/13 07:24:54;;;;;;;;;6.75;5.75;;;;;15.81;75.26;102332.41;5062262;28;62105;-77
2021/12/13 07:27:19;;;;;;;;;7.25;6.00;;;;;15.78;74.82;102326.97;5057164;28;61913;-77
2021/12/13 07:29:45;;;;;;;;;6.00;5.75;;;;;15.80;75.24;102341.19;5041577;28;61885;-76
2021/12/13 07:32:29;;;;;;;;;5.50;5.50;;;;;15.81;74.86;102338.63;5040676;28;61966;-76
2021/12/13 07:35:18;;;;;;;;;7.25;5.50;;;;;15.85;74.92;102344.94;5042376;28;61939;-76
2021/12/13 07:38:04;;;;;;;;;7.25;7.25;;;;;15.86;74.87;102342.38;5043551;28;62065;-75
2021/12/13 07:40:29;;;;;;;;;5.00;5.00;;;;;15.85;75.14;102340.59;5062103;28;61842;-74
2021/12/13 07:43:13;;;;;;;;;6.00;6.00;;;;;15.91;75.11;102350.56;5061088;28;61807;-75
2021/12/13 07:45:44;;;;;;;;;9.00;7.25;;;;;15.89;75.15;102347.81;5061793;28;62109;-74
2021/12/13 07:48:21;;;;;;;;;14.75;5.75;;;;;15.93;75.31;102347.13;5062412;28;61889;-74
2021/12/13 07:51:10;;;;;;;;;6.75;5.75;;;;;15.94;74.81;102348.97;5076983;28;63832;-73
2021/12/13 07:53:50;;;;;;;;;5.00;3.25;;;;;15.95;74.66;102347.22;5061946;28;61751;-73
2021/12/13 07:56:26;;;;;;;;;6.25;5.00;;;;;15.97;74.66;102345.53;5061201;28;61744;-75
2021/12/13 07:58:57;;;;;;;;;7.00;6.00;;;;;15.99;74.77;102349.19;5061295;28;62674;-75
2021/12/13 08:01:26;;;;;;;;;8.00;5.75;;;;;15.94;74.12;102343.66;5061716;28;62092;-75
2021/12/13 08:03:54;;;;;;;;;2.75;2.75;;;;;15.98;74.95;102344.72;5061998;28;61793;-76
2021/12/13 08:06:25;;;;;;;;;6.25;4.75;;;;;15.98;74.92;102350.03;5060472;28;62000;-78
2021/12/13 08:08:55;;;;;;;;;7.00;4.50;;;;;15.99;74.86;102349.19;5061301;28;62192;-76
2021/12/13 08:11:39;;;;;;;;;6.25;3.25;;;;;15.97;74.96;102347.28;5059454;28;61985;-76
2021/12/13 08:14:05;;;;;;;;;4.00;4.00;;;;;15.99;74.74;102348.28;5075370;28;61862;-76
2021/12/13 08:16:34;;;;;;;;;5.00;3.00;;;;;16.02;74.33;102345.75;5060820;28;61866;-76
2021/12/13 08:19:16;;;;;;;;;3.00;3.00;;;;;16.05;74.78;102348.56;5061878;28;61839;-76
2021/12/13 08:21:46;;;;;;;;;5.25;3.00;;;;;16.05;74.53;102353.88;5076609;28;65002;-76
2021/12/13 08:24:25;;;;;;;;;4.00;2.00;;;;;16.10;74.82;102347.94;5061731;28;61946;-76
2021/12/13 08:27:09;;;;;;;;;2.50;2.50;;;;;16.08;74.89;102349.59;5059940;28;62137;-76
2021/12/13 08:29:38;;;;;;;;;3.50;3.00;;;;;16.09;74.85;102354.09;5063411;28;61904;-76
2021/12/13 08:32:15;;;;;;;;;2.00;2.00;;;;;16.11;74.81;102352.41;5064452;28;61823;-76
2021/12/13 08:34:49;;;;;;;;;5.00;2.00;;;;;16.13;74.71;102352.47;5065108;28;61861;-77
2021/12/13 08:37:25;;;;;;;;;2.00;2.00;;;;;16.16;74.68;102347.31;5063377;28;61878;-76
2021/12/13 08:39:56;;;;;;;;;3.00;3.00;;;;;16.21;74.26;102347.53;5065234;28;61721;-76
2021/12/13 08:42:24;;;;;;;;;7.75;6.00;;;;;16.24;74.37;102353.88;5064019;28;62680;-76
2021/12/13 08:45:05;;;;;;;;;3.25;3.25;;;;;16.28;74.39;102358.50;5064918;28;61919;-77
2021/12/13 08:47:50;;;;;;;;;6.25;2.25;;;;;16.26;73.89;102360.16;5065053;28;61735;-76
2021/12/13 08:50:33;;;;;;;;;2.75;2.50;;;;;16.28;74.00;102361.16;5064631;28;61792;-76
2021/12/13 08:53:04;;;;;;;;;7.00;5.25;;;;;16.32;73.29;102355.16;5063420;28;61769;-76
2021/12/13 08:55:34;;;;;;;;;6.50;4.75;;;;;16.34;73.25;102356.09;5064583;28;61807;-76
2021/12/13 08:58:11;;;;;;;;;9.25;6.25;;;;;16.33;73.12;102364.91;5082923;28;61774;-76
2021/12/13 09:01:02;;;;;;;;;5.25;5.25;;;;;16.35;73.19;102354.38;5083749;28;61782;-76
2021/12/13 09:03:36;;;;;;;;;12.00;8.50;;;;;16.32;73.08;102362.19;5084409;27;62157;-75
2021/12/13 09:06:17;;;;;;;;;11.50;9.75;;;;;16.37;73.73;102360.66;5084784;27;61788;-76
2021/12/13 09:09:14;;;;;;;;;12.50;7.75;;;;;16.40;73.49;102373.16;5084913;27;61894;-76
2021/12/13 09:11:55;;;;;;;;;7.50;6.50;;;;;16.39;73.51;102371.31;5075117;28;61849;-76
2021/12/13 09:14:35;;;;;;;;;10.25;8.25;;;;;16.42;73.42;102368.81;5084119;28;61833;-76
2021/12/13 09:17:21;;;;;;;;;6.50;6.25;;;;;16.39;73.46;102364.28;5083711;28;61873;-76
2021/12/13 09:19:50;;;;;;;;;7.25;6.75;;;;;16.41;73.73;102377.59;5084934;27;61845;-76
2021/12/13 09:22:21;;;;;;;;;7.75;6.50;;;;;16.38;73.50;102377.47;5084790;27;61711;-76
2021/12/13 09:24:47;;;;;;;;;7.00;5.75;;;;;16.43;73.40;102383.88;5084208;28;61798;-76
2021/12/13 09:27:18;;;;;;;;;6.50;6.50;;;;;16.46;73.29;102386.69;5084080;27;61832;-76
2021/12/13 09:29:57;;;;;;;;;11.25;11.25;;;;;16.48;73.28;102382.38;5083341;28;61969;-77
2021/12/13 09:32:31;;;;;;;;;3.50;3.50;;;;;16.48;73.22;102380.59;5084807;27;61784;-76
2021/12/13 09:35:31;;;;;;;;;4.75;4.75;;;;;16.43;73.44;102383.88;5084210;27;61957;-76
2021/12/13 09:38:04;;;;;;;;;5.00;4.25;;;;;16.38;73.31;102385.41;5084363;28;61768;-76
2021/12/13 09:40:42;;;;;;;;;2.00;2.00;;;;;16.35;73.16;102384.44;5083640;27;61903;-77
2021/12/13 09:43:07;;;;;;;;;2.25;2.25;;;;;16.34;72.90;102382.59;5083375;27;61832;-76
2021/12/13 09:45:44;;;;;;;;;6.75;5.00;;;;;16.37;73.35;102381.88;5083719;27;62601;-76
2021/12/13 09:48:21;;;;;;;;;6.25;5.25;;;;;16.44;73.16;102370.69;5084305;27;61739;-76
2021/12/13 09:50:51;;;;;;;;;4.25;4.25;;;;;16.44;73.39;102378.66;5082971;28;62060;-76
2021/12/13 09:53:17;;;;;;;;;3.25;3.25;;;;;16.39;72.25;102379.25;5084286;27;61991;-77
2021/12/13 09:55:49;;;;;;;;;5.00;3.50;;;;;16.43;72.45;102387.47;5081846;28;64054;-76
2021/12/13 09:58:20;;;;;;;;;6.50;3.00;;;;;16.48;73.06;102385.00;5083496;27;61720;-76
2021/12/13 10:00:57;;;;;;;;;10.50;4.50;;;;;16.53;72.33;102379.06;5084236;27;61833;-76
2021/12/13 10:03:28;;;;;;;;;5.25;4.50;;;;;16.55;72.41;102385.34;5084022;28;61774;-76
2021/12/13 10:05:59;;;;;;;;;6.50;3.00;;;;;16.53;71.70;102387.00;5082134;28;64873;-76
2021/12/13 10:08:39;;;;;;;;;3.75;2.50;;;;;16.62;71.81;102385.63;5083967;27;61844;-76
2021/12/13 10:11:10;;;;;;;;;4.00;4.00;;;;;16.60;70.95;102382.91;5082514;28;61898;-77
2021/12/13 10:13:39;;;;;;;;;5.25;3.50;;;;;16.49;71.02;102384.16;5084037;27;61731;-76
2021/12/13 10:16:16;;;;;;;;;5.50;5.50;;;;;16.42;71.07;102395.31;5083310;27;61939;-76
2021/12/13 10:18:45;;;;;;;;;4.75;4.00;;;;;16.36;71.10;102388.88;5084096;27;62111;-76
2021/12/13 10:21:15;;;;;;;;;4.75;4.75;;;;;16.27;71.14;102372.56;5083865;27;62367;-76
2021/12/13 10:23:46;;;;;;;;;10.00;7.00;;;;;16.28;71.17;102378.75;5082377;28;62185;-76
2021/12/13 10:26:14;;;;;;;;;8.00;6.00;;;;;16.26;70.91;102381.38;5083022;27;62971;-76
2021/12/13 10:28:45;;;;;;;;;8.00;4.25;;;;;16.19;70.27;102365.09;5082110;27;61900;-76
2021/12/13 10:31:18;;;;;;;;;4.75;3.50;;;;;16.21;70.39;102374.94;5083974;27;61794;-76
2021/12/13 10:33:44;;;;;;;;;3.25;3.25;;;;;16.05;69.30;102364.47;5082498;28;62167;-76
2021/12/13 10:36:12;;;;;;;;;3.75;3.75;;;;;16.09;70.22;102361.13;5083042;27;61786;-76
2021/12/13 10:38:43;;;;;;;;;4.00;4.00;;;;;16.11;69.89;102372.66;5083032;27;62034;-76
2021/12/13 10:41:23;;;;;;;;;3.00;3.00;;;;;16.20;69.73;102375.78;5083823;27;62175;-76
2021/12/13 10:43:59;;;;;;;;;4.25;3.00;;;;;16.32;69.24;102386.03;5083742;27;61984;-76
2021/12/13 10:46:31;;;;;;;;;2.00;2.00;;;;;16.41;69.14;102378.53;5082909;27;63294;-76
2021/12/13 10:49:02;;;;;;;;;4.75;4.75;;;;;16.41;68.29;102381.19;5083516;27;62186;-76
2021/12/13 10:51:32;;;;;;;;;7.00;6.00;;;;;16.41;68.55;102369.66;5082094;27;61830;-76
2021/12/13 10:54:07;;;;;;;;;5.25;5.25;;;;;16.42;68.22;102376.78;5081705;28;61763;-76
2021/12/13 10:56:38;;;;;;;;;5.50;4.75;;;;;16.41;68.28;102374.94;5080982;28;63690;-75
2021/12/13 10:59:09;;;;;;;;;9.25;4.00;;;;;16.39;67.81;102368.66;5082958;27;61992;-76
2021/12/13 11:01:38;;;;;;;;;5.25;5.00;;;;;16.40;68.09;102374.03;5082902;27;61843;-76
2021/12/13 11:04:07;;;;;;;;;10.50;6.50;;;;;16.37;67.93;102373.91;5082573;27;61780;-75
2021/12/13 11:06:35;;;;;;;;;6.00;6.00;;;;;16.32;68.41;102378.06;5081756;28;61756;-76
2021/12/13 11:09:05;;;;;;;;;6.00;6.00;;;;;16.31;68.67;102379.81;5082879;27;61874;-76
2021/12/13 11:11:39;;;;;;;;;5.00;5.00;;;;;16.30;68.68;102372.72;5083032;27;62102;-76
2021/12/13 11:14:20;;;;;;;;;6.25;5.50;;;;;16.32;68.63;102372.78;5081939;28;62222;-76
2021/12/13 11:16:55;;;;;;;;;3.50;3.25;;;;;16.31;67.92;102373.63;5081925;28;62569;-77
2021/12/13 11:19:26;;;;;;;;;9.50;6.00;;;;;16.31;68.26;102374.53;5082854;27;61941;-75
2021/12/13 11:22:01;;;;;;;;;12.00;6.00;;;;;16.35;68.13;102376.50;5082527;27;61969;-75
2021/12/13 11:24:32;;;;;;;;;4.00;4.00;;;;;16.31;68.25;102368.31;5083199;27;61751;-76
2021/12/13 11:27:02;;;;;;;;;8.50;5.00;;;;;16.28;67.59;102376.13;5082165;27;62012;-74
2021/12/13 11:29:28;;;;;;;;;3.00;3.00;;;;;16.27;67.64;102371.66;5082528;27;62012;-74
2021/12/13 11:31:53;;;;;;;;;6.75;5.75;;;;;16.29;67.76;102372.66;5082615;27;61873;-74
2021/12/13 11:34:57;;;;;;;;;10.00;6.00;;;;;16.32;67.80;102367.47;5082980;27;61925;-74
2021/12/13 11:37:56;;;;;;;;;5.00;5.00;;;;;16.32;67.87;102370.13;5081720;27;61825;-74
2021/12/13 11:40:45;;;;;;;;;6.00;4.00;;;;;16.35;67.66;102365.88;5082675;27;61846;-75
2021/12/13 11:43:24;;;;;;;;;5.00;5.00;;;;;16.36;68.28;102358.84;5081063;28;61934;-74
2021/12/13 11:46:23;;;;;;;;;9.00;9.00;;;;;16.40;67.12;102359.91;5081272;28;61798;-74
2021/12/13 11:49:00;;;;;;;;;6.00;4.50;;;;;16.37;67.71;102360.66;5081644;28;61727;-75
2021/12/13 11:51:50;;;;;;;;;6.50;5.25;;;;;16.33;67.05;102356.97;5080493;28;62091;-74
2021/12/13 11:54:38;;;;;;;;;4.75;3.00;;;;;16.40;67.25;102351.94;5082693;28;61814;-74
2021/12/13 11:57:33;;;;;;;;;8.75;6.75;;;;;16.47;66.97;102351.38;5081814;27;61753;-74
2021/12/13 12:00:20;;;;;;;;;7.50;6.25;;;;;16.50;67.30;102339.19;5081631;27;61814;-74
2021/12/13 12:03:05;;;;;;;;;7.00;7.00;;;;;16.56;67.92;102330.59;5082498;28;61981;-75
2021/12/13 12:06:08;;;;;;;;;6.00;6.00;;;;;16.63;67.58;102327.38;5085892;28;62036;-74
2021/12/13 12:08:51;;;;;;;;;13.00;9.00;;;;;16.60;66.73;102335.19;5085637;27;62176;-74